createdAt,value
2023-10-20T00:00:39.377Z,99198.92
2023-10-20T00:03:28.559Z,99194.35
2023-10-20T00:05:58.069Z,99195.95
2023-10-20T00:08:26.674Z,99190.21
2023-10-20T00:10:58.864Z,99183.02
2023-10-20T00:13:27.382Z,99187.36
2023-10-20T00:15:55.813Z,99183.22
2023-10-20T00:18:24.908Z,99188.40
2023-10-20T00:20:53.646Z,99191.32
2023-10-20T00:23:22.190Z,99189.45
2023-10-20T00:25:50.909Z,99193.25
2023-10-20T00:28:19.498Z,99195.98
2023-10-20T00:30:47.983Z,99190.78
2023-10-20T00:33:17.270Z,99181.02
2023-10-20T00:35:45.776Z,99169.30
2023-10-20T00:38:14.180Z,99165.36
2023-10-20T00:40:50.400Z,99163.78
2023-10-20T00:43:19.692Z,99165.40
2023-10-20T00:45:49.332Z,99172.02
2023-10-20T00:48:18.004Z,99175.42
2023-10-20T00:50:47.296Z,99173.88
2023-10-20T00:53:16.203Z,99168.11
2023-10-20T00:55:45.179Z,99157.58
2023-10-20T00:58:13.574Z,99150.19
2023-10-20T01:00:42.442Z,99147.95
2023-10-20T01:03:12.337Z,99150.11
2023-10-20T01:05:41.322Z,99144.66
2023-10-20T01:08:10.259Z,99139.07
2023-10-20T01:10:39.024Z,99145.61
2023-10-20T01:13:07.813Z,99146.33
2023-10-20T01:15:38.471Z,99138.56
2023-10-20T01:18:09.121Z,99139.77
2023-10-20T01:20:39.586Z,99129.29
2023-10-20T01:23:08.759Z,99122.08
2023-10-20T01:25:37.690Z,99125.95
2023-10-20T01:28:06.793Z,99133.93
2023-10-20T01:30:35.289Z,99139.08
2023-10-20T01:33:04.153Z,99153.89
2023-10-20T01:35:32.812Z,99163.25
2023-10-20T01:38:02.383Z,99166.42
2023-10-20T01:40:30.939Z,99158.66
2023-10-20T01:42:59.516Z,99152.27
2023-10-20T01:45:28.303Z,99160.41
2023-10-20T01:47:57.181Z,99156.06
2023-10-20T01:50:25.944Z,99140.90
2023-10-20T01:52:56.106Z,99138.70
2023-10-20T01:55:24.963Z,99137.13
2023-10-20T01:57:53.779Z,99140.75
2023-10-20T02:00:23.799Z,99140.73
2023-10-20T02:02:52.416Z,99143.45
2023-10-20T02:05:21.430Z,99139.43
2023-10-20T02:07:50.970Z,99137.52
2023-10-20T02:10:19.448Z,99130.52
2023-10-20T02:12:48.349Z,99125.62
2023-10-20T02:15:16.929Z,99120.16
2023-10-20T02:17:45.552Z,99117.23
2023-10-20T02:20:17.144Z,99111.31
2023-10-20T02:22:45.751Z,99108.35
2023-10-20T02:25:14.746Z,99107.84
2023-10-20T02:27:44.042Z,99106.30
2023-10-20T02:30:14.838Z,99104.23
2023-10-20T02:32:44.362Z,99104.27
2023-10-20T02:35:13.972Z,99110.04
2023-10-20T02:37:42.699Z,99111.84
2023-10-20T02:40:12.142Z,99109.40
2023-10-20T02:42:40.759Z,99109.23
2023-10-20T02:45:12.523Z,99105.26
2023-10-20T02:47:41.499Z,99098.98
2023-10-20T02:50:10.794Z,99089.36
2023-10-20T02:52:39.422Z,99101.02
2023-10-20T02:55:08.634Z,99114.80
2023-10-20T02:57:38.304Z,99109.42
2023-10-20T03:00:19.495Z,99102.27
2023-10-20T03:02:50.187Z,99101.08
2023-10-20T03:05:20.679Z,99103.23
2023-10-20T03:07:49.337Z,99093.78
2023-10-20T03:10:18.421Z,99088.89
2023-10-20T03:12:47.103Z,99088.23
2023-10-20T03:15:16.809Z,99082.97
2023-10-20T03:17:45.277Z,99084.67
2023-10-20T03:20:18.969Z,99086.43
2023-10-20T03:22:49.422Z,99080.33
2023-10-20T03:25:19.443Z,99076.92
2023-10-20T03:27:48.943Z,99074.30
2023-10-20T03:30:17.517Z,99071.68
2023-10-20T03:32:51.890Z,99075.35
2023-10-20T03:35:20.922Z,99077.85
2023-10-20T03:37:58.429Z,99087.20
2023-10-20T03:40:37.865Z,99076.31
2023-10-20T03:43:08.087Z,99071.59
2023-10-20T03:45:44.299Z,99065.44
2023-10-20T03:48:13.072Z,99070.17
2023-10-20T03:50:48.165Z,99072.05
2023-10-20T03:53:22.433Z,99074.04
2023-10-20T03:56:08.340Z,99075.71
2023-10-20T03:58:37.567Z,99068.04
2023-10-20T04:01:08.207Z,99071.48
2023-10-20T04:03:36.946Z,99066.27
2023-10-20T04:06:12.977Z,99065.48
2023-10-20T04:08:42.845Z,99067.50
2023-10-20T04:11:11.359Z,99058.55
2023-10-20T04:13:40.838Z,99057.38
2023-10-20T04:16:18.739Z,99052.41
2023-10-20T04:18:48.552Z,99057.58
2023-10-20T04:21:17.023Z,99062.70
2023-10-20T04:23:45.758Z,99066.95
2023-10-20T04:26:24.413Z,99064.55
2023-10-20T04:29:09.660Z,99058.79
2023-10-20T04:31:57.242Z,99048.45
2023-10-20T04:34:44.756Z,99052.15
2023-10-20T04:37:32.073Z,99058.92
2023-10-20T04:40:19.136Z,99059.77
2023-10-20T04:43:07.028Z,99060.37
2023-10-20T04:45:35.508Z,99062.27
2023-10-20T04:48:22.139Z,99058.71
2023-10-20T04:51:12.099Z,99054.84
2023-10-20T04:54:06.790Z,99050.45
2023-10-20T04:56:40.461Z,99047.94
2023-10-20T04:59:12.359Z,99053.38
2023-10-20T05:01:51.165Z,99051.60
2023-10-20T05:04:25.796Z,99048.20
2023-10-20T05:07:06.828Z,99048.71
2023-10-20T05:09:42.413Z,99042.48
2023-10-20T05:12:10.994Z,99044.36
2023-10-20T05:14:39.633Z,99047.32
2023-10-20T05:17:14.542Z,99048.40
2023-10-20T05:19:43.398Z,99055.34
2023-10-20T05:22:11.881Z,99062.29
2023-10-20T05:24:40.574Z,99057.38
2023-10-20T05:27:09.148Z,99052.13
2023-10-20T05:29:39.676Z,99061.61
2023-10-20T05:32:08.102Z,99058.49
2023-10-20T05:34:36.586Z,99043.21
2023-10-20T05:37:05.435Z,99042.42
2023-10-20T05:39:34.118Z,99045.44
2023-10-20T05:42:05.979Z,99043.23
2023-10-20T05:44:39.430Z,99046.27
2023-10-20T05:47:08.009Z,99048.01
2023-10-20T05:49:36.851Z,99043.20
2023-10-20T05:52:05.438Z,99043.64
2023-10-20T05:54:34.219Z,99042.64
2023-10-20T05:57:02.711Z,99040.21
2023-10-20T05:59:31.465Z,99040.58
2023-10-20T06:01:59.897Z,99038.13
2023-10-20T06:04:29.009Z,99034.88
2023-10-20T06:06:57.963Z,99024.23
2023-10-20T06:09:26.710Z,99021.21
2023-10-20T06:11:55.643Z,99024.36
2023-10-20T06:14:25.379Z,99026.77
2023-10-20T06:16:54.579Z,99033.20
2023-10-20T06:19:23.342Z,99029.83
2023-10-20T06:21:52.336Z,99028.73
2023-10-20T06:24:20.811Z,99028.86
2023-10-20T06:26:49.459Z,99018.98
2023-10-20T06:29:24.248Z,99024.05
2023-10-20T06:32:11.262Z,99020.30
2023-10-20T06:34:43.430Z,99020.20
2023-10-20T06:37:15.658Z,99022.78
2023-10-20T06:39:44.344Z,99032.45
2023-10-20T06:42:13.850Z,99029.98
2023-10-20T06:44:42.673Z,99024.51
2023-10-20T06:47:12.649Z,99024.08
2023-10-20T06:49:44.504Z,99019.23
2023-10-20T06:52:18.648Z,99019.88
2023-10-20T06:55:08.801Z,99021.66
2023-10-20T06:57:36.325Z,99019.38
2023-10-20T07:00:08.162Z,99020.72
2023-10-20T07:02:37.224Z,99023.03
2023-10-20T07:05:06.828Z,99033.18
2023-10-20T07:07:35.419Z,99037.19
2023-10-20T07:10:04.717Z,99043.88
2023-10-20T07:12:34.014Z,99030.80
2023-10-20T07:15:02.703Z,99031.58
2023-10-20T07:17:31.268Z,99029.85
2023-10-20T07:19:59.864Z,99031.74
2023-10-20T07:22:31.115Z,99026.23
2023-10-20T07:24:59.897Z,99018.64
2023-10-20T07:27:28.577Z,99011.06
2023-10-20T07:29:58.765Z,99009.55
2023-10-20T07:32:27.677Z,99007.53
2023-10-20T07:34:56.184Z,99004.39
2023-10-20T07:37:24.556Z,98995.31
2023-10-20T07:39:53.750Z,98989.41
2023-10-20T07:42:22.336Z,98993.90
2023-10-20T07:44:51.798Z,98988.61
2023-10-20T07:47:20.360Z,98982.61
2023-10-20T07:49:49.509Z,98984.50
2023-10-20T07:52:18.916Z,98979.61
2023-10-20T07:54:47.394Z,98983.38
2023-10-20T07:57:16.844Z,98988.83
2023-10-20T07:59:47.744Z,98986.09
2023-10-20T08:02:16.471Z,98989.55
2023-10-20T08:04:45.348Z,98997.91
2023-10-20T08:07:14.772Z,99013.41
2023-10-20T08:09:43.709Z,98999.30
2023-10-20T08:12:12.303Z,98999.77
2023-10-20T08:14:41.902Z,99006.80
2023-10-20T08:17:11.841Z,99007.80
2023-10-20T08:19:45.929Z,99011.32
2023-10-20T08:22:14.510Z,99008.34
2023-10-20T08:24:43.193Z,99013.80
2023-10-20T08:27:11.773Z,99015.17
2023-10-20T08:29:41.277Z,99010.05
2023-10-20T08:32:10.195Z,99000.73
2023-10-20T08:34:39.366Z,99003.92
2023-10-20T08:37:09.070Z,98998.98
2023-10-20T08:39:37.654Z,99003.27
2023-10-20T08:42:18.536Z,99006.81
2023-10-20T08:44:47.908Z,99011.65
2023-10-20T08:47:18.097Z,99018.20
2023-10-20T08:49:47.546Z,99018.00
2023-10-20T08:52:18.468Z,99018.23
2023-10-20T08:54:49.433Z,99016.55
2023-10-20T08:57:17.840Z,99016.52
2023-10-20T08:59:53.185Z,99021.70
2023-10-20T09:02:22.795Z,99025.30
2023-10-20T09:04:52.674Z,99031.89
2023-10-20T09:07:24.020Z,99027.56
2023-10-20T09:09:54.547Z,99024.92
2023-10-20T09:12:26.092Z,99018.45
2023-10-20T09:14:57.849Z,99007.77
2023-10-20T09:17:26.703Z,99006.32
2023-10-20T09:20:06.720Z,99001.27
2023-10-20T09:22:35.188Z,99000.77
2023-10-20T09:25:07.525Z,98994.55
2023-10-20T09:27:36.036Z,98986.60
2023-10-20T09:30:12.354Z,98988.65
2023-10-20T09:32:41.181Z,98990.88
2023-10-20T09:35:10.616Z,98998.58
2023-10-20T09:37:40.712Z,98999.84
2023-10-20T09:40:10.517Z,98998.65
2023-10-20T09:43:26.456Z,98997.27
2023-10-20T09:46:05.444Z,98994.42
2023-10-20T09:48:35.585Z,98993.07
2023-10-20T09:51:04.654Z,98990.41
2023-10-20T09:53:33.163Z,98986.96
2023-10-20T09:56:02.025Z,98981.48
2023-10-20T09:58:35.513Z,98982.20
2023-10-20T10:01:05.378Z,98992.77
2023-10-20T10:03:44.929Z,98994.10
2023-10-20T10:06:17.850Z,98985.77
2023-10-20T10:08:49.178Z,98978.40
2023-10-20T10:11:33.204Z,98973.92
2023-10-20T10:14:03.880Z,98972.66
2023-10-20T10:16:33.197Z,98972.16
2023-10-20T10:19:11.374Z,98973.18
2023-10-20T10:21:41.819Z,98969.44
2023-10-20T10:24:11.215Z,98976.61
2023-10-20T10:26:57.806Z,98975.20
2023-10-20T10:29:53.016Z,98976.80
2023-10-20T10:32:23.997Z,98967.55
2023-10-20T10:34:57.503Z,98971.78
2023-10-20T10:37:36.327Z,98970.69
2023-10-20T10:40:13.755Z,98969.33
2023-10-20T10:42:44.707Z,98963.76
2023-10-20T10:45:28.899Z,98959.58
2023-10-20T10:48:07.316Z,98955.59
2023-10-20T10:50:40.846Z,98951.69
2023-10-20T10:53:11.385Z,98950.86
2023-10-20T10:55:41.120Z,98950.95
2023-10-20T10:58:11.587Z,98966.84
2023-10-20T11:00:40.936Z,98973.77
2023-10-20T11:03:10.819Z,98975.14
2023-10-20T11:05:40.680Z,98974.45
2023-10-20T11:08:14.056Z,98971.16
2023-10-20T11:10:47.519Z,98972.02
2023-10-20T11:13:21.466Z,98972.77
2023-10-20T11:15:51.551Z,98974.36
2023-10-20T11:18:22.157Z,98965.84
2023-10-20T11:20:51.480Z,98963.16
2023-10-20T11:23:35.550Z,98964.88
2023-10-20T11:26:16.245Z,98968.15
2023-10-20T11:28:47.690Z,98974.19
2023-10-20T11:31:16.413Z,98965.30
2023-10-20T11:33:45.099Z,98962.63
2023-10-20T11:36:13.852Z,98951.80
2023-10-20T11:38:42.456Z,98942.02
2023-10-20T11:41:11.880Z,98943.98
2023-10-20T11:43:41.642Z,98951.41
2023-10-20T11:46:12.973Z,98947.65
2023-10-20T11:48:41.749Z,98952.22
2023-10-20T11:51:12.158Z,98948.73
2023-10-20T11:53:42.352Z,98956.77
2023-10-20T11:56:12.240Z,98964.60
2023-10-20T11:58:40.819Z,98977.42
2023-10-20T12:01:09.205Z,98988.14
2023-10-20T12:03:38.336Z,98982.86
2023-10-20T12:06:08.422Z,98987.77
2023-10-20T12:08:36.946Z,98990.80
2023-10-20T12:11:06.005Z,98989.95
2023-10-20T12:13:38.179Z,99000.60
2023-10-20T12:16:08.243Z,98998.68
2023-10-20T12:18:36.839Z,98994.77
2023-10-20T12:21:05.556Z,98991.02
2023-10-20T12:23:34.055Z,98987.85
2023-10-20T12:26:04.659Z,98986.04
2023-10-20T12:28:33.555Z,98983.50
2023-10-20T12:31:02.515Z,98991.21
2023-10-20T12:33:31.382Z,98989.90
2023-10-20T12:36:00.399Z,98994.36
2023-10-20T12:38:29.121Z,98995.91
2023-10-20T12:40:57.698Z,99006.95
2023-10-20T12:43:27.518Z,99008.73
2023-10-20T12:45:56.089Z,99009.13
2023-10-20T12:48:26.268Z,99005.48
2023-10-20T12:50:55.043Z,98999.48
2023-10-20T12:53:23.717Z,98999.36
2023-10-20T12:55:54.626Z,98998.66
2023-10-20T12:58:23.068Z,98998.34
2023-10-20T13:00:51.585Z,99002.77
2023-10-20T13:03:20.066Z,98995.44
2023-10-20T13:05:49.419Z,98991.13
2023-10-20T13:08:18.048Z,98993.42
2023-10-20T13:10:48.986Z,98981.75
2023-10-20T13:13:18.697Z,98976.38
2023-10-20T13:15:47.379Z,98972.01
2023-10-20T13:18:17.175Z,98966.71
2023-10-20T13:20:48.859Z,98967.04
2023-10-20T13:23:17.836Z,98969.04
2023-10-20T13:25:46.327Z,98972.06
2023-10-20T13:28:15.238Z,98972.20
2023-10-20T13:33:24.247Z,98971.30
2023-10-20T13:35:52.753Z,98970.73
2023-10-20T13:41:00.868Z,98984.05
2023-10-20T13:43:30.062Z,98987.16
2023-10-20T13:45:58.905Z,98979.17
2023-10-20T13:48:27.686Z,98983.29
2023-10-20T13:50:56.449Z,98985.69
2023-10-20T13:53:26.226Z,98985.65
2023-10-20T13:55:55.222Z,98989.73
2023-10-20T13:58:24.337Z,98993.52
2023-10-20T14:00:52.878Z,98991.29
2023-10-20T14:03:22.002Z,98991.80
2023-10-20T14:05:56.356Z,99002.63
2023-10-20T14:08:25.095Z,99002.13
2023-10-20T14:10:55.751Z,99004.16
2023-10-20T14:13:24.134Z,99007.16
2023-10-20T14:15:52.736Z,99016.06
2023-10-20T14:18:21.573Z,99016.97
2023-10-20T14:20:50.231Z,99015.92
2023-10-20T14:23:19.373Z,99015.26
2023-10-20T14:25:47.960Z,99011.09
2023-10-20T14:28:16.640Z,99012.79
2023-10-20T14:30:45.326Z,99013.48
2023-10-20T14:33:14.100Z,99020.56
2023-10-20T14:35:43.012Z,99020.51
2023-10-20T14:38:11.485Z,99017.44
2023-10-20T14:40:40.055Z,99019.32
2023-10-20T14:43:09.376Z,99016.73
2023-10-20T14:45:38.451Z,99019.92
2023-10-20T14:48:07.344Z,99018.16
2023-10-20T14:50:38.842Z,99022.08
2023-10-20T14:53:07.575Z,99022.13
2023-10-20T14:55:37.593Z,99026.42
2023-10-20T14:58:06.290Z,99029.83
2023-10-20T15:00:37.532Z,99024.59
2023-10-20T15:03:06.576Z,99031.20
2023-10-20T15:05:39.088Z,99032.50
2023-10-20T15:08:08.672Z,99032.42
2023-10-20T15:10:37.598Z,99034.48
2023-10-20T15:13:06.488Z,99033.73
2023-10-20T15:15:36.050Z,99042.33
2023-10-20T15:18:05.390Z,99046.14
2023-10-20T15:20:34.137Z,99039.97
2023-10-20T15:23:16.499Z,99042.91
2023-10-20T15:25:47.016Z,99047.50
2023-10-20T15:28:15.502Z,99042.94
2023-10-20T15:30:44.080Z,99041.59
2023-10-20T15:33:13.340Z,99036.59
2023-10-20T15:35:44.081Z,99035.42
2023-10-20T15:38:12.910Z,99030.90
2023-10-20T15:40:42.109Z,99037.16
2023-10-20T15:43:11.714Z,99044.83
2023-10-20T15:45:40.199Z,99049.80
2023-10-20T15:48:11.062Z,99044.63
2023-10-20T15:50:44.346Z,99041.42
2023-10-20T15:53:13.003Z,99040.52
2023-10-20T15:55:43.218Z,99045.89
2023-10-20T15:58:11.614Z,99042.98
2023-10-20T16:00:42.353Z,99040.66
2023-10-20T16:03:10.872Z,99042.27
2023-10-20T16:05:39.747Z,99040.91
2023-10-20T16:08:08.397Z,99044.20
2023-10-20T16:10:36.972Z,99044.30
2023-10-20T16:13:05.567Z,99046.67
2023-10-20T16:15:33.939Z,99043.63
2023-10-20T16:18:02.906Z,99044.23
2023-10-20T16:20:31.764Z,99042.13
2023-10-20T16:23:00.403Z,99037.67
2023-10-20T16:25:28.993Z,99039.52
2023-10-20T16:27:59.574Z,99038.86
2023-10-20T16:30:28.818Z,99041.89
2023-10-20T16:32:59.863Z,99044.14
2023-10-20T16:35:29.197Z,99044.31
2023-10-20T16:37:57.839Z,99048.66
2023-10-20T16:40:26.322Z,99048.24
2023-10-20T16:42:54.701Z,99043.98
2023-10-20T16:45:23.070Z,99034.28
2023-10-20T16:47:52.881Z,99030.70
2023-10-20T16:50:22.287Z,99029.55
2023-10-20T16:52:50.767Z,99025.85
2023-10-20T16:55:19.236Z,99030.70
2023-10-20T16:57:50.087Z,99030.16
2023-10-20T17:00:18.967Z,99035.85
2023-10-20T17:02:48.716Z,99038.27
2023-10-20T17:05:17.590Z,99044.98
2023-10-20T17:07:48.808Z,99046.05
2023-10-20T17:10:18.120Z,99045.84
2023-10-20T17:12:49.880Z,99049.92
2023-10-20T17:15:19.317Z,99048.76
2023-10-20T17:17:47.710Z,99047.73
2023-10-20T17:20:16.442Z,99042.98
2023-10-20T17:22:45.438Z,99049.02
2023-10-20T17:25:16.375Z,99051.75
2023-10-20T17:27:49.799Z,99060.45
2023-10-20T17:30:19.614Z,99059.33
2023-10-20T17:32:53.343Z,99060.05
2023-10-20T17:35:22.976Z,99053.67
2023-10-20T17:37:51.472Z,99055.30
2023-10-20T17:40:20.156Z,99057.41
2023-10-20T17:42:48.643Z,99059.08
2023-10-20T17:45:17.525Z,99058.23
2023-10-20T17:47:47.724Z,99054.00
2023-10-20T17:50:18.923Z,99053.77
2023-10-20T17:52:50.857Z,99056.23
2023-10-20T17:55:23.127Z,99056.48
2023-10-20T17:57:51.720Z,99061.05
2023-10-20T18:00:22.772Z,99060.84
2023-10-20T18:02:52.606Z,99060.09
2023-10-20T18:05:21.505Z,99061.93
2023-10-20T18:07:51.164Z,99062.89
2023-10-20T18:10:20.243Z,99062.44
2023-10-20T18:12:51.095Z,99062.72
2023-10-20T18:15:22.034Z,99071.19
2023-10-20T18:17:50.578Z,99074.23
2023-10-20T18:20:20.933Z,99068.94
2023-10-20T18:22:49.844Z,99073.88
2023-10-20T18:25:21.282Z,99077.40
2023-10-20T18:27:49.558Z,99073.84
2023-10-20T18:30:21.211Z,99076.27
2023-10-20T18:32:56.568Z,99073.30
2023-10-20T18:35:30.876Z,99078.47
2023-10-20T18:38:03.033Z,99076.13
2023-10-20T18:40:36.124Z,99078.67
2023-10-20T18:43:05.522Z,99088.36
2023-10-20T18:45:34.246Z,99086.20
2023-10-20T18:48:03.086Z,99090.84
2023-10-20T18:50:31.952Z,99097.09
2023-10-20T18:53:00.572Z,99098.59
2023-10-20T18:55:30.176Z,99105.05
2023-10-20T18:58:01.019Z,99111.23
2023-10-20T19:00:33.796Z,99112.19
2023-10-20T19:03:06.135Z,99113.07
2023-10-20T19:05:34.786Z,99117.35
2023-10-20T19:08:05.834Z,99123.46
2023-10-20T19:10:34.278Z,99129.21
2023-10-20T19:13:03.271Z,99130.52
2023-10-20T19:15:35.044Z,99132.86
2023-10-20T19:18:05.612Z,99134.73
2023-10-20T19:20:34.142Z,99137.50
2023-10-20T19:23:08.755Z,99141.13
2023-10-20T19:25:40.442Z,99145.89
2023-10-20T19:28:09.507Z,99150.73
2023-10-20T19:30:38.412Z,99155.91
2023-10-20T19:33:06.656Z,99160.98
2023-10-20T19:35:35.181Z,99157.20
2023-10-20T19:38:04.757Z,99161.42
2023-10-20T19:40:36.011Z,99160.94
2023-10-20T19:43:05.099Z,99158.67
2023-10-20T19:45:33.492Z,99158.83
2023-10-20T19:48:01.779Z,99157.25
2023-10-20T19:50:30.377Z,99154.81
2023-10-20T19:52:58.921Z,99149.55
2023-10-20T19:55:27.503Z,99151.07
2023-10-20T19:57:56.095Z,99137.76
2023-10-20T20:00:26.553Z,99140.94
2023-10-20T20:02:55.222Z,99137.96
2023-10-20T20:05:26.161Z,99132.09
2023-10-20T20:07:55.741Z,99126.17
2023-10-20T20:10:24.943Z,99117.73
2023-10-20T20:12:53.492Z,99112.88
2023-10-20T20:15:24.352Z,99111.52
2023-10-20T20:17:53.724Z,99116.16
2023-10-20T20:20:22.554Z,99120.58
2023-10-20T20:22:51.168Z,99117.59
2023-10-20T20:25:19.941Z,99116.95
2023-10-20T20:27:48.608Z,99117.23
2023-10-20T20:30:17.780Z,99114.63
2023-10-20T20:32:48.610Z,99111.71
2023-10-20T20:35:17.474Z,99116.29
2023-10-20T20:37:47.965Z,99115.27
2023-10-20T20:40:16.646Z,99116.50
2023-10-20T20:42:45.029Z,99106.35
2023-10-20T20:45:13.726Z,99106.36
2023-10-20T20:47:42.180Z,99104.56
2023-10-20T20:50:18.856Z,99104.46
2023-10-20T20:52:55.423Z,99109.58
2023-10-20T20:55:24.015Z,99108.76
2023-10-20T20:57:52.804Z,99100.73
2023-10-20T21:00:21.825Z,99103.52
2023-10-20T21:02:50.386Z,99107.87
2023-10-20T21:05:19.263Z,99102.70
2023-10-20T21:07:47.646Z,99111.20
2023-10-20T21:10:16.537Z,99119.05
2023-10-20T21:12:45.013Z,99117.25
2023-10-20T21:15:14.251Z,99127.05
2023-10-20T21:17:42.883Z,99132.36
2023-10-20T21:20:12.193Z,99134.62
2023-10-20T21:22:41.278Z,99136.94
2023-10-20T21:25:10.669Z,99129.27
2023-10-20T21:27:39.264Z,99140.93
2023-10-20T21:30:09.679Z,99142.11
2023-10-20T21:32:38.351Z,99146.49
2023-10-20T21:35:07.455Z,99142.39
2023-10-20T21:37:35.834Z,99137.06
2023-10-20T21:40:05.752Z,99133.48
2023-10-20T21:42:36.479Z,99138.30
2023-10-20T21:45:05.614Z,99145.48
2023-10-20T21:47:34.232Z,99142.31
2023-10-20T21:50:02.863Z,99141.65
2023-10-20T21:52:32.712Z,99135.66
2023-10-20T21:55:01.228Z,99144.65
2023-10-20T21:57:29.820Z,99143.39
2023-10-20T21:59:58.325Z,99136.88
2023-10-20T22:02:28.138Z,99139.48
2023-10-20T22:04:56.478Z,99138.20
2023-10-20T22:07:24.878Z,99143.95
2023-10-20T22:09:54.464Z,99141.19
2023-10-20T22:12:23.366Z,99151.16
2023-10-20T22:14:52.282Z,99152.02
2023-10-20T22:17:20.630Z,99145.98
2023-10-20T22:19:49.526Z,99145.73
2023-10-20T22:22:18.208Z,99163.30
2023-10-20T22:24:46.897Z,99161.74
2023-10-20T22:27:17.599Z,99153.00
2023-10-20T22:29:46.528Z,99150.25
2023-10-20T22:32:15.316Z,99160.92
2023-10-20T22:34:43.811Z,99155.98
2023-10-20T22:37:12.776Z,99149.61
2023-10-20T22:39:41.151Z,99144.83
2023-10-20T22:42:09.691Z,99143.34
2023-10-20T22:44:38.555Z,99142.23
2023-10-20T22:47:06.937Z,99143.51
2023-10-20T22:49:35.515Z,99133.11
2023-10-20T22:52:04.899Z,99136.35
2023-10-20T22:54:33.472Z,99143.90
2023-10-20T22:57:01.975Z,99137.05
2023-10-20T22:59:30.428Z,99136.14
2023-10-20T23:01:59.026Z,99136.80
2023-10-20T23:04:27.825Z,99146.66
2023-10-20T23:06:56.391Z,99150.65
2023-10-20T23:09:24.987Z,99158.66
2023-10-20T23:11:53.366Z,99148.20
2023-10-20T23:14:21.837Z,99136.56
2023-10-20T23:16:50.835Z,99153.02
2023-10-20T23:19:19.216Z,99144.94
2023-10-20T23:21:47.594Z,99163.58
2023-10-20T23:24:16.123Z,99145.58
2023-10-20T23:26:45.202Z,99168.92
2023-10-20T23:29:14.366Z,99157.11
2023-10-20T23:31:42.847Z,99158.30
2023-10-20T23:34:11.634Z,99158.23
2023-10-20T23:36:42.069Z,99151.92
2023-10-20T23:39:11.001Z,99148.34
2023-10-20T23:41:39.460Z,99148.47
2023-10-20T23:44:07.926Z,99145.30
2023-10-20T23:46:36.398Z,99143.63
2023-10-20T23:49:04.982Z,99142.31
2023-10-20T23:51:33.567Z,99138.55
2023-10-20T23:54:01.966Z,99142.48
2023-10-20T23:56:30.645Z,99140.52
2023-10-20T23:58:59.418Z,99138.23
